Wetterdaten: Woche 05.11.18 - 11.11.18 (KW45)
Datum Zeit Temp. Aussen Temp. o. S. +5cm Feuchte Auss Luftdruck Regen Sonnenschein Regendauer Solar Windben Empfang
05.11.2018 00:00 5,8 C 4,5 C 4,2 C 94 % 1009,4 hPa 0,0 l/m 0,00 h 0,00 h 0 W/m 0,0 km/h (0 Bft) 99,11 %
05.11.2018 01:00 5,4 C 4,6 C 4,0 C 95 % 1009,0 hPa 0,0 l/m 0,00 h 0,00 h 0 W/m 0,5 km/h (0 Bft) 96,43 %
05.11.2018 02:00 5,6 C 4,8 C 4,3 C 96 % 1008,5 hPa 0,0 l/m 0,00 h 0,00 h 0 W/m 0,8 km/h (0 Bft) 98,28 %
05.11.2018 03:00 5,4 C 4,3 C 4,1 C 96 % 1008,0 hPa 0,2 l/m 0,00 h 0,00 h 0 W/m 1,0 km/h (0 Bft) 97,39 %
05.11.2018 04:00 5,1 C 4,1 C 3,9 C 96 % 1007,8 hPa 0,0 l/m 0,00 h 0,00 h 0 W/m 0,4 km/h (0 Bft) 96,70 %
05.11.2018 05:00 5,0 C 4,4 C 4,0 C 96 % 1007,5 hPa 0,0 l/m 0,00 h 0,00 h 0 W/m 0,0 km/h (0 Bft) 99,12 %
05.11.2018 06:00 5,1 C 4,4 C 3,9 C 97 % 1007,3 hPa 0,0 l/m 0,00 h 0,00 h 0 W/m 0,3 km/h (0 Bft) 95,30 %
05.11.2018 07:00 5,4 C 5,2 C 4,5 C 97 % 1007,3 hPa 0,0 l/m 0,00 h 0,00 h 8 W/m 0,7 km/h (0 Bft) 97,76 %
05.11.2018 08:00 6,5 C 7,1 C 6,0 C 98 % 1007,2 hPa 0,0 l/m 0,00 h 0,00 h 47 W/m 0,3 km/h (0 Bft) 99,72 %
05.11.2018 09:00 8,9 C 9,8 C 8,8 C 99 % 1007,0 hPa 0,0 l/m 0,27 h 0,00 h 94 W/m 5,0 km/h (1 Bft) 94,85 %
05.11.2018 10:00 10,4 C 10,8 C 10,5 C 98 % 1006,7 hPa 0,0 l/m 0,00 h 0,00 h 118 W/m 15,4 km/h (3 Bft) 98,86 %
05.11.2018 11:00 11,6 C 11,5 C 11,3 C 92 % 1006,5 hPa 0,0 l/m 0,00 h 0,00 h 125 W/m 21,8 km/h (4 Bft) 98,17 %
05.11.2018 12:00 12,4 C 12,6 C 11,8 C 87 % 1006,1 hPa 0,0 l/m 0,00 h 0,00 h 141 W/m 19,1 km/h (3 Bft) 94,86 %
05.11.2018 13:00 13,4 C 15,2 C 12,5 C 84 % 1005,5 hPa 0,0 l/m 0,40 h 0,00 h 215 W/m 13,2 km/h (3 Bft) 97,40 %
05.11.2018 14:00 13,4 C 13,6 C 12,2 C 84 % 1005,2 hPa 0,0 l/m 0,33 h 0,00 h 133 W/m 10,0 km/h (2 Bft) 98,13 %
05.11.2018 15:00 13,5 C 13,6 C 12,4 C 84 % 1004,9 hPa 0,0 l/m 0,67 h 0,00 h 109 W/m 10,9 km/h (2 Bft) 97,32 %
05.11.2018 16:00 13,3 C 12,4 C 11,7 C 84 % 1004,7 hPa 0,0 l/m 0,83 h 0,00 h 39 W/m 10,6 km/h (2 Bft) 96,78 %
05.11.2018 17:00 12,3 C 10,8 C 10,2 C 86 % 1004,9 hPa 0,0 l/m 0,00 h 0,00 h 0 W/m 5,7 km/h (1 Bft) 98,82 %
05.11.2018 18:00 11,3 C 10,5 C 9,8 C 88 % 1004,9 hPa 0,0 l/m 0,00 h 0,00 h 0 W/m 4,3 km/h (1 Bft) 97,49 %
05.11.2018 19:00 11,0 C 10,2 C 9,7 C 90 % 1004,7 hPa 0,0 l/m 0,00 h 0,00 h 0 W/m 7,2 km/h (2 Bft) 95,81 %
05.11.2018 20:00 10,7 C 9,8 C 9,3 C 90 % 1004,7 hPa 0,0 l/m 0,00 h 0,00 h 0 W/m 8,4 km/h (2 Bft) 98,46 %
05.11.2018 21:00 10,1 C 9,0 C 8,8 C 91 % 1004,6 hPa 0,0 l/m 0,00 h 0,00 h 0 W/m 7,9 km/h (2 Bft) 98,22 %
05.11.2018 22:00 9,8 C 9,0 C 8,7 C 93 % 1004,7 hPa 0,0 l/m 0,00 h 0,00 h 0 W/m 9,2 km/h (2 Bft) 96,79 %
05.11.2018 23:00 9,8 C 9,2 C 8,6 C 94 % 1004,6 hPa 0,0 l/m 0,00 h 0,00 h 0 W/m 10,7 km/h (2 Bft) 97,38 %
06.11.2018 00:00 9,5 C 8,6 C 8,0 C 94 % 1004,8 hPa 0,0 l/m 0,00 h 0,00 h 0 W/m 10,1 km/h (2 Bft) 98,29 %
06.11.2018 01:00 9,1 C 8,1 C 7,7 C 94 % 1004,8 hPa 0,0 l/m 0,00 h 0,00 h 0 W/m 8,5 km/h (2 Bft) 97,70 %
06.11.2018 02:00 8,7 C 7,9 C 7,3 C 95 % 1004,8 hPa 0,0 l/m 0,00 h 0,00 h 0 W/m 11,9 km/h (2 Bft) 96,49 %
06.11.2018 03:00 8,9 C 8,3 C 7,8 C 96 % 1004,4 hPa 0,0 l/m 0,00 h 0,00 h 0 W/m 11,5 km/h (2 Bft) 97,98 %
06.11.2018 04:00 9,2 C 8,9 C 8,2 C 96 % 1004,5 hPa 0,0 l/m 0,00 h 0,00 h 0 W/m 10,6 km/h (2 Bft) 98,32 %
06.11.2018 05:00 9,4 C 8,9 C 8,3 C 95 % 1004,6 hPa 0,0 l/m 0,00 h 0,00 h 0 W/m 12,2 km/h (2 Bft) 97,22 %
06.11.2018 06:00 9,6 C 9,1 C 8,3 C 95 % 1004,3 hPa 0,0 l/m 0,00 h 0,00 h 0 W/m 9,9 km/h (2 Bft) 96,06 %
06.11.2018 07:00 9,6 C 8,8 C 8,2 C 94 % 1004,8 hPa 0,0 l/m 0,00 h 0,00 h 7 W/m 8,2 km/h (2 Bft) 98,94 %
06.11.2018 08:00 9,4 C 9,3 C 8,5 C 94 % 1005,4 hPa 0,0 l/m 0,00 h 0,00 h 38 W/m 10,1 km/h (2 Bft) 98,32 %
06.11.2018 09:00 11,0 C 13,9 C 10,3 C 92 % 1005,6 hPa 0,0 l/m 0,97 h 0,00 h 193 W/m 13,8 km/h (3 Bft) 95,05 %
06.11.2018 10:00 13,8 C 16,6 C 12,3 C 83 % 1005,5 hPa 0,0 l/m 0,93 h 0,00 h 252 W/m 15,3 km/h (3 Bft) 98,00 %
06.11.2018 11:00 15,6 C 19,7 C 13,4 C 76 % 1005,2 hPa 0,0 l/m 1,00 h 0,00 h 378 W/m 13,5 km/h (3 Bft) 97,87 %
06.11.2018 12:00 16,8 C 20,8 C 15,6 C 72 % 1004,4 hPa 0,0 l/m 1,00 h 0,00 h 368 W/m 12,1 km/h (2 Bft) 97,10 %
06.11.2018 13:00 18,1 C 21,6 C 16,1 C 68 % 1003,8 hPa 0,0 l/m 1,00 h 0,00 h 352 W/m 14,5 km/h (3 Bft) 94,28 %
06.11.2018 14:00 18,6 C 21,4 C 16,0 C 66 % 1003,4 hPa 0,0 l/m 0,90 h 0,00 h 250 W/m 9,4 km/h (2 Bft) 97,23 %
06.11.2018 15:00 18,2 C 17,6 C 15,4 C 67 % 1003,3 hPa 0,0 l/m 0,20 h 0,00 h 82 W/m 7,6 km/h (2 Bft) 97,93 %
06.11.2018 16:00 16,7 C 14,5 C 12,4 C 73 % 1003,3 hPa 0,0 l/m 0,00 h 0,00 h 23 W/m 2,2 km/h (1 Bft) 96,87 %
06.11.2018 17:00 15,0 C 13,8 C 11,9 C 77 % 1003,3 hPa 0,0 l/m 0,00 h 0,00 h 0 W/m 6,3 km/h (2 Bft) 97,83 %
06.11.2018 18:00 14,4 C 13,2 C 12,4 C 80 % 1003,8 hPa 0,0 l/m 0,00 h 0,00 h 0 W/m 9,8 km/h (2 Bft) 97,05 %
06.11.2018 19:00 13,8 C 12,7 C 12,0 C 81 % 1004,3 hPa 0,0 l/m 0,00 h 0,00 h 0 W/m 11,6 km/h (2 Bft) 96,42 %
06.11.2018 20:00 12,9 C 11,8 C 11,2 C 84 % 1004,7 hPa 0,0 l/m 0,00 h 0,00 h 0 W/m 11,6 km/h (2 Bft) 96,55 %
06.11.2018 21:00 12,4 C 11,7 C 11,1 C 86 % 1004,8 hPa 0,0 l/m 0,00 h 0,00 h 0 W/m 11,8 km/h (2 Bft) 97,79 %
06.11.2018 22:00 12,1 C 11,2 C 10,6 C 87 % 1005,1 hPa 0,0 l/m 0,00 h 0,00 h 0 W/m 10,8 km/h (2 Bft) 94,86 %
06.11.2018 23:00 11,5 C 10,5 C 10,1 C 89 % 1005,3 hPa 0,0 l/m 0,00 h 0,00 h 0 W/m 13,6 km/h (3 Bft) 96,19 %
07.11.2018 00:00 10,9 C 10,0 C 9,4 C 91 % 1005,3 hPa 0,0 l/m 0,00 h 0,00 h 0 W/m 10,8 km/h (2 Bft) 98,37 %
07.11.2018 01:00 10,5 C 9,8 C 9,4 C 91 % 1005,5 hPa 0,0 l/m 0,00 h 0,00 h 0 W/m 9,2 km/h (2 Bft) 99,09 %
07.11.2018 02:00 10,5 C 9,8 C 9,2 C 92 % 1005,8 hPa 0,0 l/m 0,00 h 0,00 h 0 W/m 6,9 km/h (2 Bft) 94,57 %
07.11.2018 03:00 10,1 C 8,8 C 8,5 C 91 % 1005,6 hPa 0,0 l/m 0,00 h 0,00 h 0 W/m 7,3 km/h (2 Bft) 98,48 %
07.11.2018 04:00 9,7 C 9,2 C 8,6 C 92 % 1005,1 hPa 0,0 l/m 0,00 h 0,00 h 0 W/m 13,9 km/h (3 Bft) 98,00 %
07.11.2018 05:00 10,0 C 9,4 C 8,9 C 91 % 1005,1 hPa 0,0 l/m 0,00 h 0,00 h 0 W/m 17,0 km/h (3 Bft) 96,26 %
07.11.2018 06:00 9,7 C 8,8 C 8,2 C 90 % 1005,2 hPa 0,0 l/m 0,00 h 0,00 h 0 W/m 15,6 km/h (3 Bft) 97,62 %
07.11.2018 07:00 9,3 C 8,6 C 7,9 C 90 % 1005,2 hPa 0,0 l/m 0,00 h 0,00 h 7 W/m 16,1 km/h (3 Bft) 97,44 %
07.11.2018 08:00 9,3 C 9,0 C 8,1 C 91 % 1005,6 hPa 0,0 l/m 0,00 h 0,00 h 20 W/m 18,3 km/h (3 Bft) 97,03 %
07.11.2018 09:00 11,1 C 14,0 C 9,8 C 86 % 1005,5 hPa 0,0 l/m 1,00 h 0,00 h 226 W/m 23,2 km/h (4 Bft) 97,71 %
07.11.2018 10:00 13,0 C 14,9 C 11,3 C 79 % 1005,6 hPa 0,0 l/m 0,77 h 0,00 h 240 W/m 24,9 km/h (4 Bft) 95,88 %
07.11.2018 11:00 14,4 C 18,6 C 12,7 C 74 % 1005,7 hPa 0,0 l/m 0,93 h 0,00 h 399 W/m 22,2 km/h (4 Bft) 98,23 %
07.11.2018 12:00 16,0 C 19,1 C 14,8 C 69 % 1005,4 hPa 0,0 l/m 0,90 h 0,00 h 353 W/m 23,6 km/h (4 Bft) 94,33 %
07.11.2018 13:00 16,1 C 16,7 C 14,7 C 67 % 1005,3 hPa 0,0 l/m 0,40 h 0,00 h 184 W/m 17,8 km/h (3 Bft) 98,34 %
07.11.2018 14:00 16,1 C 15,7 C 14,7 C 66 % 1005,8 hPa 0,0 l/m 0,03 h 0,00 h 85 W/m 19,2 km/h (3 Bft) 99,03 %
07.11.2018 15:00 15,5 C 14,9 C 13,9 C 68 % 1006,2 hPa 0,0 l/m 0,00 h 0,17 h 30 W/m 16,3 km/h (3 Bft) 95,23 %
07.11.2018 16:00 14,6 C 11,3 C 11,1 C 77 % 1006,7 hPa 0,6 l/m 0,00 h 0,67 h 7 W/m 10,9 km/h (2 Bft) 97,41 %
07.11.2018 17:00 13,3 C 11,1 C 10,8 C 81 % 1007,1 hPa 0,0 l/m 0,00 h 0,00 h 0 W/m 9,2 km/h (2 Bft) 99,14 %
07.11.2018 18:00 13,4 C 11,8 C 12,0 C 79 % 1007,8 hPa 0,0 l/m 0,00 h 0,00 h 0 W/m 14,7 km/h (3 Bft) 96,12 %
07.11.2018 19:00 13,4 C 11,9 C 11,7 C 80 % 1008,6 hPa 0,0 l/m 0,00 h 0,00 h 0 W/m 14,4 km/h (3 Bft) 97,90 %
07.11.2018 20:00 12,9 C 12,0 C 11,4 C 83 % 1009,2 hPa 0,0 l/m 0,00 h 0,00 h 0 W/m 13,0 km/h (3 Bft) 96,48 %
07.11.2018 21:00 12,4 C 11,7 C 11,1 C 86 % 1009,8 hPa 0,0 l/m 0,00 h 0,00 h 0 W/m 13,2 km/h (3 Bft) 97,22 %
07.11.2018 22:00 12,3 C 11,5 C 10,9 C 85 % 1010,5 hPa 0,0 l/m 0,00 h 0,00 h 0 W/m 10,7 km/h (2 Bft) 99,51 %
07.11.2018 23:00 11,7 C 10,4 C 9,9 C 87 % 1011,1 hPa 0,0 l/m 0,00 h 0,00 h 0 W/m 6,1 km/h (2 Bft) 96,68 %
08.11.2018 00:00 10,9 C 10,2 C 9,5 C 88 % 1011,6 hPa 0,0 l/m 0,00 h 0,00 h 0 W/m 6,8 km/h (2 Bft) 96,33 %
08.11.2018 01:00 10,9 C 10,3 C 9,7 C 89 % 1012,3 hPa 0,0 l/m 0,00 h 0,00 h 0 W/m 8,4 km/h (2 Bft) 98,60 %
08.11.2018 02:00 10,5 C 9,5 C 9,0 C 88 % 1012,9 hPa 0,0 l/m 0,00 h 0,00 h 0 W/m 8,0 km/h (2 Bft) 98,22 %
08.11.2018 03:00 10,0 C 9,2 C 8,5 C 89 % 1013,6 hPa 0,0 l/m 0,00 h 0,00 h 0 W/m 6,9 km/h (2 Bft) 96,15 %
08.11.2018 04:00 9,7 C 9,3 C 8,6 C 89 % 1014,4 hPa 0,0 l/m 0,00 h 0,00 h 0 W/m 5,2 km/h (1 Bft) 96,84 %
08.11.2018 05:00 10,0 C 9,5 C 9,0 C 89 % 1015,4 hPa 0,0 l/m 0,00 h 0,00 h 0 W/m 7,1 km/h (2 Bft) 99,29 %
08.11.2018 06:00 10,5 C 10,3 C 9,6 C 89 % 1016,3 hPa 0,0 l/m 0,00 h 0,00 h 0 W/m 12,0 km/h (2 Bft) 97,71 %
08.11.2018 07:00 10,8 C 9,9 C 9,4 C 89 % 1017,3 hPa 0,0 l/m 0,00 h 0,00 h 6 W/m 8,3 km/h (2 Bft) 95,69 %
08.11.2018 08:00 10,1 C 9,3 C 8,7 C 90 % 1018,1 hPa 0,0 l/m 0,00 h 0,00 h 26 W/m 5,8 km/h (2 Bft) 98,40 %
08.11.2018 09:00 10,8 C 14,4 C 9,7 C 89 % 1018,8 hPa 0,0 l/m 1,00 h 0,00 h 218 W/m 9,1 km/h (2 Bft) 98,20 %
08.11.2018 10:00 12,2 C 15,1 C 10,7 C 83 % 1019,4 hPa 0,0 l/m 0,73 h 0,00 h 246 W/m 9,0 km/h (2 Bft) 97,03 %
08.11.2018 11:00 13,0 C 19,1 C 11,2 C 80 % 1019,9 hPa 0,0 l/m 1,00 h 0,00 h 389 W/m 9,1 km/h (2 Bft) 95,61 %
08.11.2018 12:00 15,2 C 22,4 C 12,9 C 72 % 1019,9 hPa 0,0 l/m 1,00 h 0,00 h 420 W/m 6,3 km/h (2 Bft) 96,95 %
08.11.2018 13:00 14,7 C 15,0 C 11,4 C 71 % 1019,6 hPa 0,0 l/m 0,10 h 0,00 h 108 W/m 2,7 km/h (1 Bft) 97,05 %
08.11.2018 14:00 14,0 C 18,9 C 10,7 C 74 % 1019,1 hPa 0,0 l/m 0,73 h 0,00 h 251 W/m 3,2 km/h (1 Bft) 98,63 %
08.11.2018 15:00 13,6 C 12,6 C 10,3 C 71 % 1018,7 hPa 0,0 l/m 0,17 h 0,00 h 63 W/m 5,5 km/h (1 Bft) 97,52 %
08.11.2018 16:00 12,0 C 9,6 C 8,4 C 74 % 1018,4 hPa 0,0 l/m 0,00 h 0,00 h 15 W/m 1,6 km/h (1 Bft) 96,69 %
08.11.2018 17:00 9,7 C 7,1 C 6,6 C 79 % 1017,9 hPa 0,0 l/m 0,00 h 0,00 h 0 W/m 0,1 km/h (0 Bft) 96,41 %
08.11.2018 18:00 8,0 C 5,7 C 5,4 C 82 % 1017,8 hPa 0,0 l/m 0,00 h 0,00 h 0 W/m 0,3 km/h (0 Bft) 99,01 %
08.11.2018 19:00 6,9 C 5,8 C 5,1 C 86 % 1017,5 hPa 0,0 l/m 0,00 h 0,00 h 0 W/m 1,8 km/h (1 Bft) 98,55 %
08.11.2018 20:00 6,6 C 5,6 C 5,0 C 88 % 1017,3 hPa 0,0 l/m 0,00 h 0,00 h 0 W/m 0,0 km/h (0 Bft) 95,92 %
08.11.2018 21:00 6,3 C 5,1 C 4,7 C 88 % 1016,7 hPa 0,0 l/m 0,00 h 0,00 h 0 W/m 0,0 km/h (0 Bft) 97,31 %
08.11.2018 22:00 5,9 C 5,0 C 4,4 C 90 % 1016,3 hPa 0,0 l/m 0,00 h 0,00 h 0 W/m 0,0 km/h (0 Bft) 98,58 %
08.11.2018 23:00 5,9 C 5,1 C 4,6 C 91 % 1015,6 hPa 0,0 l/m 0,00 h 0,00 h 0 W/m 0,0 km/h (0 Bft) 97,01 %
09.11.2018 00:00 5,9 C 4,9 C 4,5 C 93 % 1015,0 hPa 0,0 l/m 0,00 h 0,00 h 0 W/m 0,0 km/h (0 Bft) 93,37 %
09.11.2018 01:00 5,7 C 4,8 C 4,4 C 93 % 1014,3 hPa 0,0 l/m 0,00 h 0,00 h 0 W/m 0,0 km/h (0 Bft) 97,43 %
09.11.2018 02:00 6,0 C 6,0 C 5,4 C 95 % 1013,6 hPa 0,2 l/m 0,00 h 0,43 h 0 W/m 0,0 km/h (0 Bft) 96,92 %
09.11.2018 03:00 6,8 C 6,5 C 6,0 C 96 % 1013,1 hPa 0,2 l/m 0,00 h 0,17 h 0 W/m 0,0 km/h (0 Bft) 97,65 %
09.11.2018 04:00 7,0 C 5,5 C 5,3 C 96 % 1012,5 hPa 0,0 l/m 0,00 h 0,00 h 0 W/m 0,0 km/h (0 Bft) 97,14 %
09.11.2018 05:00 6,9 C 6,4 C 5,8 C 96 % 1012,3 hPa 0,0 l/m 0,00 h 0,00 h 0 W/m 4,2 km/h (1 Bft) 96,49 %
09.11.2018 06:00 7,8 C 7,0 C 6,7 C 97 % 1012,1 hPa 0,0 l/m 0,00 h 0,00 h 0 W/m 8,9 km/h (2 Bft) 99,27 %
09.11.2018 07:00 7,7 C 6,7 C 6,5 C 96 % 1012,3 hPa 0,0 l/m 0,00 h 0,00 h 5 W/m 8,6 km/h (2 Bft) 96,75 %
09.11.2018 08:00 7,8 C 7,3 C 6,8 C 96 % 1012,2 hPa 0,0 l/m 0,00 h 0,00 h 25 W/m 12,7 km/h (3 Bft) 95,37 %
09.11.2018 09:00 8,9 C 9,6 C 8,1 C 97 % 1012,1 hPa 0,0 l/m 0,53 h 0,00 h 117 W/m 11,5 km/h (2 Bft) 99,50 %
09.11.2018 10:00 9,8 C 10,5 C 9,0 C 95 % 1011,9 hPa 0,0 l/m 0,17 h 0,00 h 130 W/m 16,1 km/h (3 Bft) 97,27 %
09.11.2018 11:00 10,7 C 12,9 C 10,0 C 92 % 1011,7 hPa 0,0 l/m 0,53 h 0,00 h 214 W/m 17,6 km/h (3 Bft) 95,88 %
09.11.2018 12:00 12,7 C 15,8 C 12,1 C 86 % 1011,0 hPa 0,0 l/m 1,00 h 0,00 h 326 W/m 18,6 km/h (3 Bft) 97,24 %
09.11.2018 13:00 14,1 C 16,6 C 12,7 C 80 % 1010,1 hPa 0,0 l/m 0,93 h 0,00 h 275 W/m 17,0 km/h (3 Bft) 98,25 %
09.11.2018 14:00 14,4 C 14,8 C 12,8 C 78 % 1009,6 hPa 0,0 l/m 0,40 h 0,00 h 139 W/m 12,6 km/h (3 Bft) 98,42 %
09.11.2018 15:00 14,0 C 13,4 C 12,5 C 80 % 1009,1 hPa 0,0 l/m 0,00 h 0,00 h 56 W/m 9,2 km/h (2 Bft) 95,88 %
09.11.2018 16:00 13,6 C 12,8 C 11,9 C 82 % 1008,8 hPa 0,0 l/m 0,00 h 0,00 h 15 W/m 9,8 km/h (2 Bft) 99,39 %
09.11.2018 17:00 13,1 C 12,2 C 11,5 C 83 % 1008,7 hPa 0,0 l/m 0,00 h 0,00 h 0 W/m 10,3 km/h (2 Bft) 96,53 %
09.11.2018 18:00 12,5 C 11,7 C 10,8 C 84 % 1008,4 hPa 0,0 l/m 0,00 h 0,00 h 0 W/m 14,6 km/h (3 Bft) 96,14 %
09.11.2018 19:00 12,2 C 11,4 C 10,6 C 86 % 1007,9 hPa 0,0 l/m 0,00 h 0,00 h 0 W/m 16,7 km/h (3 Bft) 99,23 %
09.11.2018 20:00 11,8 C 11,1 C 10,2 C 87 % 1007,4 hPa 0,0 l/m 0,00 h 0,00 h 0 W/m 16,1 km/h (3 Bft) 97,15 %
09.11.2018 21:00 11,5 C 10,7 C 10,0 C 88 % 1007,1 hPa 0,0 l/m 0,00 h 0,00 h 0 W/m 15,4 km/h (3 Bft) 94,82 %
09.11.2018 22:00 11,3 C 10,6 C 10,0 C 89 % 1006,3 hPa 0,0 l/m 0,00 h 0,00 h 0 W/m 15,2 km/h (3 Bft) 99,29 %
09.11.2018 23:00 11,3 C 10,4 C 9,8 C 89 % 1005,5 hPa 0,0 l/m 0,00 h 0,00 h 0 W/m 15,8 km/h (3 Bft) 97,59 %
10.11.2018 00:00 10,8 C 10,0 C 9,4 C 90 % 1004,7 hPa 0,0 l/m 0,00 h 0,00 h 0 W/m 13,6 km/h (3 Bft) 96,15 %
10.11.2018 01:00 10,6 C 10,0 C 9,4 C 90 % 1004,0 hPa 0,0 l/m 0,00 h 0,00 h 0 W/m 18,6 km/h (3 Bft) 98,08 %
10.11.2018 02:00 10,8 C 10,3 C 9,4 C 89 % 1003,3 hPa 0,0 l/m 0,00 h 0,00 h 0 W/m 17,6 km/h (3 Bft) 97,04 %
10.11.2018 03:00 11,2 C 10,9 C 10,0 C 88 % 1002,5 hPa 0,0 l/m 0,00 h 0,00 h 0 W/m 20,6 km/h (4 Bft) 97,94 %
10.11.2018 04:00 11,7 C 11,4 C 10,6 C 85 % 1001,6 hPa 0,0 l/m 0,00 h 0,00 h 0 W/m 22,4 km/h (4 Bft) 97,13 %
10.11.2018 05:00 12,7 C 12,4 C 11,5 C 82 % 1000,8 hPa 0,0 l/m 0,00 h 0,00 h 0 W/m 27,7 km/h (4 Bft) 96,41 %
10.11.2018 06:00 13,0 C 11,2 C 10,5 C 82 % 1000,6 hPa 0,8 l/m 0,00 h 0,70 h 0 W/m 27,2 km/h (4 Bft) 98,40 %
10.11.2018 07:00 11,7 C 9,9 C 9,4 C 90 % 1000,5 hPa 0,8 l/m 0,00 h 0,90 h 6 W/m 27,2 km/h (4 Bft) 98,35 %
10.11.2018 08:00 11,3 C 10,0 C 9,4 C 93 % 1001,0 hPa 0,0 l/m 0,00 h 0,07 h 12 W/m 23,8 km/h (4 Bft) 93,54 %
10.11.2018 09:00 11,5 C 10,6 C 10,0 C 93 % 1001,3 hPa 0,0 l/m 0,00 h 0,00 h 16 W/m 14,5 km/h (3 Bft) 98,99 %
10.11.2018 10:00 11,8 C 11,3 C 10,5 C 93 % 1001,6 hPa 0,0 l/m 0,00 h 0,00 h 42 W/m 11,0 km/h (2 Bft) 98,94 %
10.11.2018 11:00 13,0 C 12,6 C 11,6 C 92 % 1001,7 hPa 0,0 l/m 0,00 h 0,37 h 56 W/m 11,2 km/h (2 Bft) 94,67 %
10.11.2018 12:00 13,3 C 11,7 C 11,2 C 91 % 1001,6 hPa 1,2 l/m 0,00 h 0,97 h 44 W/m 13,6 km/h (3 Bft) 99,34 %
10.11.2018 13:00 12,7 C 11,6 C 11,1 C 95 % 1001,1 hPa 0,8 l/m 0,00 h 1,00 h 61 W/m 16,0 km/h (3 Bft) 97,03 %
10.11.2018 14:00 12,6 C 11,7 C 11,1 C 96 % 1000,6 hPa 0,4 l/m 0,00 h 0,83 h 46 W/m 14,3 km/h (3 Bft) 96,02 %
10.11.2018 15:00 12,6 C 11,7 C 11,1 C 97 % 1000,0 hPa 0,0 l/m 0,00 h 0,40 h 19 W/m 17,3 km/h (3 Bft) 98,17 %
10.11.2018 16:00 12,7 C 11,7 C 11,1 C 97 % 1000,0 hPa 0,0 l/m 0,00 h 0,10 h 15 W/m 17,3 km/h (3 Bft) 96,95 %
10.11.2018 17:00 12,8 C 11,7 C 11,1 C 96 % 1000,4 hPa 0,2 l/m 0,00 h 0,23 h 0 W/m 10,2 km/h (2 Bft) 97,16 %
10.11.2018 18:00 12,6 C 11,6 C 10,9 C 95 % 1000,5 hPa 0,0 l/m 0,00 h 0,00 h 0 W/m 8,3 km/h (2 Bft) 97,24 %
10.11.2018 19:00 12,8 C 11,7 C 11,1 C 95 % 1000,6 hPa 0,2 l/m 0,00 h 0,50 h 0 W/m 14,8 km/h (3 Bft) 97,39 %
10.11.2018 20:00 12,9 C 11,7 C 11,1 C 94 % 1000,8 hPa 0,2 l/m 0,00 h 0,97 h 0 W/m 18,4 km/h (3 Bft) 98,94 %
10.11.2018 21:00 12,7 C 11,2 C 10,8 C 95 % 1001,1 hPa 1,0 l/m 0,00 h 0,90 h 0 W/m 17,4 km/h (3 Bft) 96,45 %
10.11.2018 22:00 12,2 C 11,0 C 10,6 C 96 % 1001,5 hPa 0,0 l/m 0,00 h 0,23 h 0 W/m 13,6 km/h (3 Bft) 97,00 %
10.11.2018 23:00 11,9 C 10,8 C 10,6 C 96 % 1001,7 hPa 0,0 l/m 0,00 h 0,00 h 0 W/m 15,8 km/h (3 Bft) 99,15 %
11.11.2018 00:00 11,8 C 10,9 C 10,1 C 95 % 1001,8 hPa 0,0 l/m 0,00 h 0,00 h 0 W/m 13,8 km/h (3 Bft) 96,76 %
11.11.2018 01:00 11,4 C 11,0 C 10,0 C 94 % 1001,9 hPa 0,0 l/m 0,00 h 0,00 h 0 W/m 12,8 km/h (3 Bft) 95,99 %
11.11.2018 02:00 11,5 C 11,1 C 10,6 C 94 % 1002,0 hPa 0,0 l/m 0,00 h 0,00 h 0 W/m 15,5 km/h (3 Bft) 99,03 %
11.11.2018 03:00 11,5 C 11,0 C 10,1 C 93 % 1001,9 hPa 0,0 l/m 0,00 h 0,00 h 0 W/m 17,4 km/h (3 Bft) 98,20 %
11.11.2018 04:00 11,3 C 10,9 C 10,0 C 92 % 1001,8 hPa 0,0 l/m 0,00 h 0,00 h 0 W/m 15,5 km/h (3 Bft) 96,07 %
11.11.2018 05:00 11,5 C 11,1 C 10,4 C 91 % 1001,9 hPa 0,0 l/m 0,00 h 0,00 h 0 W/m 16,8 km/h (3 Bft) 97,37 %
11.11.2018 06:00 11,6 C 10,5 C 10,0 C 90 % 1002,0 hPa 0,4 l/m 0,00 h 0,60 h 0 W/m 18,5 km/h (3 Bft) 98,89 %
11.11.2018 07:00 11,1 C 9,4 C 8,9 C 92 % 1002,3 hPa 0,2 l/m 0,00 h 0,40 h 0 W/m 14,4 km/h (3 Bft) 97,30 %
11.11.2018 08:00 10,9 C 10,0 C 9,3 C 93 % 1003,1 hPa 0,0 l/m 0,00 h 0,00 h 19 W/m 14,4 km/h (3 Bft) 94,66 %
11.11.2018 09:00 11,6 C 10,9 C 10,1 C 90 % 1003,6 hPa 0,2 l/m 0,07 h 0,00 h 57 W/m 15,1 km/h (3 Bft) 98,00 %
11.11.2018 10:00 13,2 C 14,1 C 12,2 C 84 % 1004,0 hPa 0,0 l/m 0,40 h 0,00 h 175 W/m 21,4 km/h (4 Bft) 97,86 %
11.11.2018 11:00 14,6 C 16,1 C 13,5 C 77 % 1004,3 hPa 0,0 l/m 0,73 h 0,00 h 246 W/m 24,2 km/h (4 Bft) 96,45 %
11.11.2018 12:00 14,8 C 14,7 C 13,7 C 75 % 1004,9 hPa 0,0 l/m 0,13 h 0,00 h 131 W/m 23,2 km/h (4 Bft) 98,60 %
11.11.2018 13:00 14,8 C 14,0 C 13,2 C 77 % 1005,1 hPa 0,0 l/m 0,07 h 0,40 h 79 W/m 18,6 km/h (3 Bft) 96,90 %
11.11.2018 14:00 14,0 C 12,8 C 12,2 C 82 % 1005,3 hPa 0,0 l/m 0,00 h 0,80 h 37 W/m 21,9 km/h (4 Bft) 97,47 %
11.11.2018 15:00 13,4 C 12,7 C 12,0 C 83 % 1005,7 hPa 0,0 l/m 0,00 h 0,00 h 25 W/m 24,2 km/h (4 Bft) 97,25 %
11.11.2018 16:00 12,9 C 11,8 C 11,3 C 86 % 1005,9 hPa 0,0 l/m 0,00 h 0,30 h 16 W/m 16,0 km/h (3 Bft) 97,38 %
11.11.2018 17:00 12,5 C 11,6 C 11,1 C 89 % 1006,1 hPa 0,0 l/m 0,00 h 0,23 h 0 W/m 13,5 km/h (3 Bft) 98,96 %
11.11.2018 18:00 12,6 C 11,9 C 11,4 C 88 % 1006,6 hPa 0,0 l/m 0,00 h 0,40 h 0 W/m 16,4 km/h (3 Bft) 95,76 %
11.11.2018 19:00 12,5 C 10,4 C 10,0 C 89 % 1007,1 hPa 0,4 l/m 0,00 h 1,00 h 0 W/m 8,9 km/h (2 Bft) 97,16 %
11.11.2018 20:00 11,8 C 10,0 C 9,6 C 91 % 1007,9 hPa 0,4 l/m 0,00 h 0,87 h 0 W/m 13,5 km/h (3 Bft) 98,58 %
11.11.2018 21:00 11,4 C 9,8 C 9,4 C 92 % 1008,7 hPa 0,2 l/m 0,00 h 0,37 h 0 W/m 13,5 km/h (3 Bft) 98,01 %
11.11.2018 22:00 11,2 C 10,0 C 9,4 C 92 % 1009,3 hPa 0,0 l/m 0,00 h 0,00 h 0 W/m 8,9 km/h (2 Bft) 95,94 %
11.11.2018 23:00 11,1 C 10,0 C 9,4 C 92 % 1009,9 hPa 0,0 l/m 0,00 h 0,00 h 0 W/m 9,7 km/h (2 Bft) 97,58 %
Min-Datum _ 05.11.18 05.11.18 05.11.18 06.11.18 10.11.18 - - - - 05.11.18 09.11.18
_ Min-Zeit 04:58 03:50 00:20 14:44 15:28 - - - - 00:00 00:02
Minimum _ 4,9 C 3,9 C 3,9 C 65 % 999,8 hPa - - - - 0,0 km/h (0 Bft) 5,26 %
Max-Datum _ 06.11.18 06.11.18 07.11.18 05.11.18 08.11.18 10.11.18 05.11.18 07.11.18 11.11.18 10.11.18 05.11.18
_ Max-Zeit 14:30 14:22 12:16 09:24 12:18 12:18 13:08 16:08 11:14 05:40 00:08
Maximum _ 18,8 C 24,4 C 18,9 C 99 % 1020,0 hPa 1,2 l/m 0,07 h 0,07 h 468 W/m 45,1 km/h
O-SO (6 Bft)
100,00 %
Durchschnitt _ 11,3 C 11,0 C 9,8 C 88 % 1007,3 hPa #8,6 l/m #22:14 h #14:58 h 126 W/m 11,6 km/h (2 Bft) 97,31 %
© 2018 W. Hausmann